KPHX/PHX METAR and TAF weather

Enter ICAO airport designator
Station Type Date Time Source
KPHX METAR 2019/10/18 10:51 UTC NOAA

KPHX 181051Z 10006KT 10SM CLR 22/06 A2968 RMK AO2 SLP032 T02170061


Station Type Date Time Source
KPHX Decoded METAR 2019/10/18 10:51 UTC NOAA

Phoenix, Phoenix Sky Harbor International Airport, AZ, United States (KPHX) 33-26-03N 112-03-04W 336M
Oct 18, 2019 - 06:51 AM EDT / 2019.10.18 1051 UTC
Wind: from the E (100 degrees) at 7 MPH (6 KT):0
Visibility: 10 mile(s):0
Sky conditions: clear
Temperature: 71.1 F (21.7 C)
Dew Point: 43.0 F (6.1 C)
Relative Humidity: 36%
Pressure (altimeter): 29.68 in. Hg (1005 hPa)
ob: KPHX 181051Z 10006KT 10SM CLR 22/06 A2968 RMK AO2 SLP032 T02170061
cycle: 11

Station Type Date Time Source
KPHX TAF 2019/10/18 08:30 UTC NOAA

TAF
AMD KPHX 180828Z 1808/1912 13005KT P6SM FEW100
FM181600 25007KT P6SM SKC
FM190700 12004KT P6SM SKC

Example: see airport list